createdAt,value
2023-03-25T06:02:56.671Z,100115.25
2023-03-25T06:05:29.813Z,100111.25
2023-03-25T06:08:06.552Z,100104.94
2023-03-25T06:10:36.970Z,100104.47
2023-03-25T06:13:13.545Z,100098.63
2023-03-25T06:15:44.703Z,100107.97
2023-03-25T06:18:23.506Z,100110.28
2023-03-25T06:21:04.585Z,100111.28
2023-03-25T06:23:43.571Z,100113.94
2023-03-25T06:26:14.004Z,100108.28
2023-03-25T06:28:50.551Z,100118.59
2023-03-25T06:31:23.452Z,100126.59
2023-03-25T06:34:06.630Z,100116.09
2023-03-25T06:36:36.796Z,100123.09
2023-03-25T06:39:15.605Z,100123.09
2023-03-25T06:41:52.565Z,100127.28
2023-03-25T06:44:24.836Z,100116.94
2023-03-25T06:47:01.611Z,100125.44
2023-03-25T06:49:34.498Z,100125.75
2023-03-25T06:52:11.562Z,100136.09
2023-03-25T06:54:41.850Z,100141.91
2023-03-25T06:57:18.580Z,100141.91
2023-03-25T06:59:49.817Z,100129.25
2023-03-25T07:02:26.773Z,100129.63
2023-03-25T07:05:06.647Z,100137.28
2023-03-25T07:07:37.133Z,100133.09
2023-03-25T07:10:14.686Z,100136.63
2023-03-25T07:12:45.442Z,100134.63
2023-03-25T07:15:22.653Z,100134.47
2023-03-25T07:17:53.375Z,100138.63
2023-03-25T07:20:35.668Z,100140.31
2023-03-25T07:23:06.108Z,100131.50
2023-03-25T07:25:45.649Z,100135.53
2023-03-25T07:28:22.732Z,100140.50
2023-03-25T07:30:53.075Z,100139.69
2023-03-25T07:33:29.670Z,100143.50
2023-03-25T07:36:02.796Z,100145.50
2023-03-25T07:38:39.696Z,100137.84
2023-03-25T07:41:12.581Z,100149.00
2023-03-25T07:43:49.721Z,100154.16
2023-03-25T07:46:26.764Z,100147.50
2023-03-25T07:48:57.746Z,100143.66
2023-03-25T07:51:39.699Z,100154.31
2023-03-25T07:54:10.152Z,100145.47
2023-03-25T07:56:47.819Z,100150.16
2023-03-25T07:59:18.629Z,100142.28
2023-03-25T08:01:55.732Z,100147.97
2023-03-25T08:04:26.156Z,100153.13
2023-03-25T08:07:05.741Z,100157.31
2023-03-25T08:09:36.391Z,100150.78
2023-03-25T08:12:13.810Z,100153.28
2023-03-25T08:14:50.735Z,100164.28
2023-03-25T08:17:21.261Z,100172.94
2023-03-25T08:19:57.721Z,100173.97
2023-03-25T08:22:37.782Z,100171.09
2023-03-25T08:25:10.721Z,100172.44
2023-03-25T08:27:47.768Z,100177.28
2023-03-25T08:30:19.584Z,100176.97
2023-03-25T08:33:00.811Z,100160.75
2023-03-25T08:35:31.403Z,100178.22
2023-03-25T08:38:11.780Z,100184.22
2023-03-25T08:40:42.874Z,100176.88
2023-03-25T08:43:20.869Z,100161.13
2023-03-25T08:45:51.661Z,100163.75
2023-03-25T08:48:29.750Z,100173.41
2023-03-25T08:51:07.790Z,100179.53
2023-03-25T08:53:40.844Z,100184.53
2023-03-25T08:56:19.794Z,100174.44
2023-03-25T08:58:57.968Z,100189.78
2023-03-25T09:01:31.221Z,100188.59
2023-03-25T09:04:07.850Z,100198.34
2023-03-25T09:06:47.651Z,100188.81
2023-03-25T09:09:27.791Z,100180.31
2023-03-25T09:12:04.813Z,100190.28
2023-03-25T09:14:35.184Z,100190.63
2023-03-25T09:17:12.843Z,100186.13
2023-03-25T09:19:43.306Z,100189.59
2023-03-25T09:22:19.820Z,100185.56
2023-03-25T09:24:59.915Z,100192.25
2023-03-25T09:27:36.843Z,100180.56
2023-03-25T09:30:09.050Z,100194.94
2023-03-25T09:32:45.924Z,100192.56
2023-03-25T09:35:16.400Z,100193.22
2023-03-25T09:37:53.876Z,100202.06
2023-03-25T09:40:27.690Z,100201.66
2023-03-25T09:43:26.898Z,100203.00
2023-03-25T09:45:59.737Z,100203.19
2023-03-25T09:48:42.860Z,100202.25
2023-03-25T09:51:29.850Z,100205.75
2023-03-25T09:54:07.278Z,100208.09
2023-03-25T09:56:50.865Z,100198.13
2023-03-25T09:59:31.884Z,100200.31
2023-03-25T10:02:11.153Z,100207.94
2023-03-25T10:05:04.793Z,100212.38
2023-03-25T10:07:52.565Z,100208.97
2023-03-25T10:10:39.916Z,100213.34
2023-03-25T10:13:23.345Z,100222.94
2023-03-25T10:16:08.894Z,100223.75
2023-03-25T10:19:05.282Z,100230.25
2023-03-25T10:21:50.877Z,100215.28
2023-03-25T10:24:24.514Z,100224.78
2023-03-25T10:27:09.869Z,100222.41
2023-03-25T10:29:57.822Z,100208.88
2023-03-25T10:32:37.353Z,100198.72
2023-03-25T10:35:19.906Z,100204.00
2023-03-25T10:37:53.130Z,100225.91
2023-03-25T10:40:35.873Z,100235.78
2023-03-25T10:43:21.636Z,100239.66
2023-03-25T10:46:05.023Z,100236.97
2023-03-25T10:48:36.302Z,100234.59
2023-03-25T10:51:18.904Z,100239.38
2023-03-25T10:53:53.445Z,100243.56
2023-03-25T10:56:33.948Z,100251.84
2023-03-25T10:59:14.306Z,100251.59
2023-03-25T11:01:56.254Z,100249.28
2023-03-25T11:04:38.949Z,100239.09
2023-03-25T11:07:23.823Z,100252.63
2023-03-25T11:10:00.958Z,100247.03
2023-03-25T11:12:42.956Z,100252.31
2023-03-25T11:15:24.981Z,100272.72
2023-03-25T11:18:05.375Z,100258.66
2023-03-25T11:20:48.942Z,100260.25
2023-03-25T11:23:34.936Z,100265.94
2023-03-25T11:26:16.962Z,100248.81
2023-03-25T11:28:48.527Z,100272.78
2023-03-25T11:31:28.014Z,100248.03
2023-03-25T11:34:13.917Z,100262.53
2023-03-25T11:37:03.141Z,100253.31
2023-03-25T11:39:38.161Z,100254.06
2023-03-25T11:42:36.952Z,100244.97
2023-03-25T11:45:10.318Z,100257.75
2023-03-25T11:47:49.970Z,100255.63
2023-03-25T11:50:29.570Z,100264.00
2023-03-25T11:53:10.011Z,100266.50
2023-03-25T11:55:55.982Z,100263.31
2023-03-25T11:58:33.435Z,100262.03
2023-03-25T12:01:12.990Z,100264.03
2023-03-25T12:03:43.314Z,100262.28
2023-03-25T12:06:29.086Z,100257.13
2023-03-25T12:09:09.960Z,100255.31
2023-03-25T12:11:48.455Z,100255.19
2023-03-25T12:14:45.045Z,100259.94
2023-03-25T12:17:34.030Z,100258.22
2023-03-25T12:20:16.645Z,100274.00
2023-03-25T12:23:10.111Z,100248.66
2023-03-25T12:25:56.887Z,100259.06
2023-03-25T12:29:21.040Z,100260.53
2023-03-25T12:32:10.834Z,100250.59
2023-03-25T12:35:08.799Z,100272.38
2023-03-25T12:38:07.117Z,100255.38
2023-03-25T12:40:58.687Z,100272.13
2023-03-25T12:43:46.136Z,100262.19
2023-03-25T12:46:32.861Z,100264.84
2023-03-25T12:49:30.025Z,100265.63
2023-03-25T12:52:16.088Z,100268.13
2023-03-25T12:55:12.085Z,100275.13
2023-03-25T12:58:06.108Z,100275.59
2023-03-25T13:00:50.689Z,100266.31
2023-03-25T13:03:52.118Z,100260.28
2023-03-25T13:06:34.928Z,100290.25
2023-03-25T13:09:19.075Z,100292.38
2023-03-25T13:11:57.082Z,100302.91
2023-03-25T13:14:41.130Z,100302.91
2023-03-25T13:17:21.500Z,100301.63
2023-03-25T13:20:01.049Z,100301.41
2023-03-25T13:22:37.923Z,100316.91
2023-03-25T13:25:20.162Z,100317.13
2023-03-25T13:27:54.910Z,100316.19
2023-03-25T13:30:40.096Z,100306.00
2023-03-25T13:33:19.247Z,100320.25
2023-03-25T13:36:03.265Z,100315.72
2023-03-25T13:38:44.124Z,100316.38
2023-03-25T13:41:20.360Z,100328.78
2023-03-25T13:44:10.189Z,100325.00
2023-03-25T13:46:44.779Z,100329.56
2023-03-25T13:49:28.423Z,100317.63
2023-03-25T13:51:58.841Z,100330.03
2023-03-25T13:54:44.225Z,100345.38
2023-03-25T13:58:12.075Z,100342.34
